createdAt,value
2018-02-16T00:00:24.683Z,0.00
2018-02-16T00:01:24.734Z,0.00
2018-02-16T00:02:24.785Z,0.00
2018-02-16T00:03:24.839Z,0.00
2018-02-16T00:04:24.893Z,0.00
2018-02-16T00:05:24.947Z,0.00
2018-02-16T00:06:25.003Z,0.00
2018-02-16T00:07:25.057Z,0.00
2018-02-16T00:08:25.112Z,0.00
2018-02-16T00:09:25.168Z,0.00
2018-02-16T00:10:25.220Z,0.00
2018-02-16T00:11:25.278Z,0.00
2018-02-16T00:12:25.329Z,0.00
2018-02-16T00:13:25.385Z,0.00
2018-02-16T00:14:25.439Z,0.00
2018-02-16T00:15:25.495Z,0.00
2018-02-16T00:16:26.286Z,0.00
2018-02-16T00:17:25.602Z,0.00
2018-02-16T00:18:26.335Z,0.00
2018-02-16T00:19:25.713Z,0.00
2018-02-16T00:20:25.765Z,0.00
2018-02-16T00:21:25.820Z,0.00
2018-02-16T00:22:25.875Z,0.00
2018-02-16T00:23:25.930Z,0.00
2018-02-16T00:24:25.983Z,0.00
2018-02-16T00:25:26.038Z,0.00
2018-02-16T00:26:26.093Z,0.00
2018-02-16T00:27:26.148Z,0.00
2018-02-16T00:28:26.203Z,0.00
2018-02-16T00:29:26.255Z,0.00
2018-02-16T00:30:26.309Z,0.00
2018-02-16T00:31:26.365Z,0.00
2018-02-16T00:32:26.418Z,0.00
2018-02-16T00:33:26.476Z,0.00
2018-02-16T00:34:26.529Z,0.00
2018-02-16T00:35:26.583Z,0.00
2018-02-16T00:36:26.636Z,0.00
2018-02-16T00:37:26.690Z,0.00
2018-02-16T00:38:26.745Z,0.00
2018-02-16T00:39:26.800Z,0.00
2018-02-16T00:40:26.852Z,0.00
2018-02-16T00:41:26.908Z,0.00
2018-02-16T00:42:26.961Z,0.00
2018-02-16T00:43:27.016Z,0.00
2018-02-16T00:44:27.220Z,0.00
2018-02-16T00:45:27.124Z,0.00
2018-02-16T00:46:27.177Z,0.00
2018-02-16T00:47:27.232Z,0.00
2018-02-16T00:48:27.285Z,0.00
2018-02-16T00:49:27.340Z,0.00
2018-02-16T00:50:27.394Z,0.00
2018-02-16T00:51:27.450Z,0.00
2018-02-16T00:52:27.502Z,0.00
2018-02-16T00:53:27.557Z,0.00
2018-02-16T00:54:27.614Z,0.00
2018-02-16T00:55:27.665Z,0.00
2018-02-16T00:56:27.720Z,0.00
2018-02-16T00:57:27.774Z,0.00
2018-02-16T00:58:27.825Z,0.00
2018-02-16T00:59:27.881Z,0.00
2018-02-16T01:00:27.932Z,0.00
2018-02-16T01:01:27.988Z,0.00
2018-02-16T01:02:28.042Z,0.00
2018-02-16T01:03:28.094Z,0.00
2018-02-16T01:04:28.149Z,0.00
2018-02-16T01:05:28.202Z,0.00
2018-02-16T01:06:28.256Z,0.00
2018-02-16T01:07:28.310Z,0.00
2018-02-16T01:08:28.364Z,0.00
2018-02-16T01:09:28.418Z,0.00
2018-02-16T01:10:28.470Z,0.00
2018-02-16T01:11:28.525Z,0.00
2018-02-16T01:12:28.579Z,0.00
2018-02-16T01:13:28.633Z,0.00
2018-02-16T01:14:28.686Z,0.00
2018-02-16T01:15:28.739Z,0.00
2018-02-16T01:16:28.792Z,0.00
2018-02-16T01:17:28.845Z,0.00
2018-02-16T01:18:28.900Z,0.00
2018-02-16T01:19:28.953Z,0.00
2018-02-16T01:20:29.007Z,0.00
2018-02-16T01:21:29.060Z,0.00
2018-02-16T01:22:29.117Z,0.00
2018-02-16T01:23:29.173Z,0.00
2018-02-16T01:24:29.220Z,0.00
2018-02-16T01:25:29.275Z,0.00
2018-02-16T01:26:29.329Z,0.00
2018-02-16T01:27:29.386Z,0.00
2018-02-16T01:28:29.434Z,0.00
2018-02-16T01:29:29.489Z,0.00
2018-02-16T01:30:29.543Z,0.00
2018-02-16T01:31:29.596Z,0.00
2018-02-16T01:32:29.650Z,0.00
2018-02-16T01:33:29.704Z,0.00
2018-02-16T01:34:29.757Z,0.00
2018-02-16T01:35:29.812Z,0.00
2018-02-16T01:36:29.864Z,0.00
2018-02-16T01:37:29.917Z,0.00
2018-02-16T01:38:29.973Z,0.00
2018-02-16T01:39:30.026Z,0.00
2018-02-16T01:40:30.078Z,0.00
2018-02-16T01:41:30.132Z,0.00
2018-02-16T01:42:30.185Z,0.00
2018-02-16T01:43:30.240Z,0.00
2018-02-16T01:44:30.291Z,0.00
2018-02-16T01:45:30.348Z,0.00
2018-02-16T01:46:30.400Z,0.00
2018-02-16T01:47:30.454Z,0.00
2018-02-16T01:48:30.507Z,0.00
2018-02-16T01:49:30.560Z,0.00
2018-02-16T01:50:30.615Z,0.00
2018-02-16T01:51:30.668Z,0.00
2018-02-16T01:52:30.721Z,0.00
2018-02-16T01:53:30.776Z,0.00
2018-02-16T01:54:30.829Z,0.00
2018-02-16T01:55:30.882Z,0.00
2018-02-16T01:56:30.936Z,0.00
2018-02-16T01:57:30.988Z,0.00
2018-02-16T01:58:31.046Z,0.00
2018-02-16T01:59:31.097Z,0.00
2018-02-16T02:00:31.150Z,0.00
2018-02-16T02:01:31.237Z,0.00
2018-02-16T02:02:31.261Z,0.00
2018-02-16T02:03:31.311Z,0.00
2018-02-16T02:04:31.366Z,0.00
2018-02-16T02:05:31.419Z,0.00
2018-02-16T02:06:31.472Z,0.00
2018-02-16T02:07:31.525Z,0.00
2018-02-16T02:08:31.578Z,0.00
2018-02-16T02:09:31.782Z,0.00
2018-02-16T02:10:31.686Z,0.00
2018-02-16T02:11:31.740Z,0.00
2018-02-16T02:12:31.794Z,0.00
2018-02-16T02:13:31.847Z,0.00
2018-02-16T02:14:31.901Z,0.00
2018-02-16T02:15:31.960Z,0.00
2018-02-16T02:16:32.007Z,0.00
2018-02-16T02:17:32.061Z,0.00
2018-02-16T02:18:32.116Z,0.00
2018-02-16T02:19:32.170Z,0.00
2018-02-16T02:20:32.222Z,0.00
2018-02-16T02:21:32.278Z,0.00
2018-02-16T02:22:32.331Z,0.00
2018-02-16T02:23:32.383Z,0.00
2018-02-16T02:24:32.463Z,0.00
2018-02-16T02:25:32.492Z,0.00
2018-02-16T02:26:32.602Z,0.00
2018-02-16T02:27:32.640Z,0.00
2018-02-16T02:28:32.690Z,0.00
2018-02-16T02:29:32.747Z,0.00
2018-02-16T02:30:32.805Z,0.00
2018-02-16T02:31:32.811Z,0.00
2018-02-16T02:32:33.083Z,0.00
2018-02-16T02:33:32.970Z,0.00
2018-02-16T02:34:33.006Z,0.00
2018-02-16T02:35:33.061Z,0.00
2018-02-16T02:36:33.114Z,0.00
2018-02-16T02:37:33.177Z,0.00
2018-02-16T02:38:33.188Z,0.00
2018-02-16T02:39:33.242Z,0.00
2018-02-16T02:40:33.294Z,0.00
2018-02-16T02:41:33.348Z,0.00
2018-02-16T02:42:33.401Z,0.00
2018-02-16T02:43:33.457Z,0.00
2018-02-16T02:44:33.512Z,0.00
2018-02-16T02:45:33.562Z,0.00
2018-02-16T02:46:33.659Z,0.00
2018-02-16T02:47:33.703Z,0.00
2018-02-16T02:48:33.722Z,0.00
2018-02-16T02:49:33.776Z,0.00
2018-02-16T02:50:33.831Z,0.00
2018-02-16T02:51:33.883Z,0.00
2018-02-16T02:52:33.939Z,0.00
2018-02-16T02:53:33.991Z,0.00
2018-02-16T02:54:34.044Z,0.00
2018-02-16T02:55:34.101Z,0.00
2018-02-16T02:56:34.151Z,0.00
2018-02-16T02:57:34.205Z,0.00
2018-02-16T02:58:34.259Z,0.00
2018-02-16T02:59:34.312Z,0.00
2018-02-16T03:00:34.365Z,0.00
2018-02-16T03:01:34.418Z,0.00
2018-02-16T03:02:34.473Z,0.00
2018-02-16T03:03:34.526Z,0.00
2018-02-16T03:04:34.581Z,0.00
2018-02-16T03:05:34.632Z,0.00
2018-02-16T03:06:34.685Z,0.00
2018-02-16T03:07:34.740Z,0.00
2018-02-16T03:08:34.791Z,0.00
2018-02-16T03:09:34.846Z,0.00
2018-02-16T03:10:34.901Z,0.00
2018-02-16T03:11:34.954Z,0.00
2018-02-16T03:12:35.006Z,0.00
2018-02-16T03:13:35.061Z,0.00
2018-02-16T03:14:35.114Z,0.00
2018-02-16T03:15:35.167Z,0.00
2018-02-16T03:16:35.221Z,0.00
2018-02-16T03:17:35.275Z,0.00
2018-02-16T03:18:35.329Z,0.00
2018-02-16T03:19:35.384Z,0.00
2018-02-16T03:20:35.435Z,0.00
2018-02-16T03:21:35.490Z,0.00
2018-02-16T03:22:35.547Z,0.00
2018-02-16T03:23:35.597Z,0.00
2018-02-16T03:24:35.650Z,0.00
2018-02-16T03:25:35.703Z,0.00
2018-02-16T03:26:35.757Z,0.00
2018-02-16T03:27:35.811Z,0.00
2018-02-16T03:28:36.014Z,0.00
2018-02-16T03:29:35.917Z,0.00
2018-02-16T03:30:35.972Z,0.00
2018-02-16T03:31:36.033Z,0.00
2018-02-16T03:32:36.079Z,0.00
2018-02-16T03:33:36.132Z,0.00
2018-02-16T03:34:36.186Z,0.00
2018-02-16T03:35:36.239Z,0.00
2018-02-16T03:36:36.293Z,0.00
2018-02-16T03:37:36.345Z,0.00
2018-02-16T03:38:36.404Z,0.00
2018-02-16T03:39:36.452Z,0.00
2018-02-16T03:40:36.505Z,0.00
2018-02-16T03:41:36.561Z,0.00
2018-02-16T03:42:36.613Z,0.00
2018-02-16T03:43:36.666Z,0.00
2018-02-16T03:44:36.720Z,0.00
2018-02-16T03:45:36.775Z,0.00
2018-02-16T03:46:36.826Z,0.00
2018-02-16T03:47:36.880Z,0.00
2018-02-16T03:48:36.932Z,0.00
2018-02-16T03:49:36.986Z,0.00
2018-02-16T03:50:37.039Z,0.00
2018-02-16T03:51:37.094Z,0.00
2018-02-16T03:52:37.145Z,0.00
2018-02-16T03:53:37.202Z,0.00
2018-02-16T03:54:37.253Z,0.00
2018-02-16T03:55:37.307Z,0.00
2018-02-16T03:56:37.360Z,0.00
2018-02-16T03:57:37.412Z,0.00
2018-02-16T03:58:37.466Z,0.00
2018-02-16T03:59:37.518Z,0.00
2018-02-16T04:00:37.571Z,0.00
2018-02-16T04:01:37.624Z,0.00
2018-02-16T04:02:37.678Z,0.00
2018-02-16T04:03:37.730Z,0.00
2018-02-16T04:04:37.784Z,0.00
2018-02-16T04:05:37.837Z,0.00
2018-02-16T04:06:37.891Z,0.00
2018-02-16T04:07:37.944Z,0.00
2018-02-16T04:08:37.996Z,0.00
2018-02-16T04:09:38.049Z,0.00
2018-02-16T04:10:38.104Z,0.00
2018-02-16T04:11:38.156Z,0.00
2018-02-16T04:12:38.209Z,0.00
2018-02-16T04:13:38.263Z,0.00
2018-02-16T04:14:38.316Z,0.00
2018-02-16T04:15:38.369Z,0.00
2018-02-16T04:16:38.421Z,0.00
2018-02-16T04:17:38.477Z,0.00
2018-02-16T04:18:38.529Z,0.00
2018-02-16T04:19:38.582Z,0.00
2018-02-16T04:20:38.634Z,0.00
2018-02-16T04:21:38.690Z,0.00
2018-02-16T04:22:38.741Z,0.00
2018-02-16T04:23:38.793Z,0.00
2018-02-16T04:24:38.847Z,0.00
2018-02-16T04:25:38.900Z,0.00
2018-02-16T04:26:38.955Z,0.00
2018-02-16T04:27:39.010Z,0.00
2018-02-16T04:28:39.059Z,0.00
2018-02-16T04:29:39.112Z,0.00
2018-02-16T04:30:39.166Z,0.00
2018-02-16T04:31:39.220Z,0.00
2018-02-16T04:32:39.275Z,0.00
2018-02-16T04:33:39.324Z,0.00
2018-02-16T04:34:39.377Z,0.00
2018-02-16T04:35:39.430Z,0.00
2018-02-16T04:36:39.483Z,0.00
2018-02-16T04:37:39.687Z,0.00
2018-02-16T04:38:39.591Z,0.00
2018-02-16T04:39:39.643Z,0.00
2018-02-16T04:40:39.695Z,0.00
2018-02-16T04:41:39.748Z,0.00
2018-02-16T04:42:39.801Z,0.00
2018-02-16T04:43:39.854Z,0.00
2018-02-16T04:44:39.906Z,0.00
2018-02-16T04:45:39.960Z,0.00
2018-02-16T04:46:40.013Z,0.00
2018-02-16T04:47:40.066Z,0.00
2018-02-16T04:48:40.118Z,0.00
2018-02-16T04:49:40.171Z,0.00
2018-02-16T04:50:40.225Z,0.00
2018-02-16T04:51:40.276Z,0.00
2018-02-16T04:52:40.329Z,0.00
2018-02-16T04:53:40.382Z,0.00
2018-02-16T04:54:40.636Z,0.00
2018-02-16T04:55:40.488Z,0.00
2018-02-16T04:56:40.549Z,0.00
2018-02-16T04:57:40.594Z,0.00
2018-02-16T04:58:40.647Z,0.00
2018-02-16T04:59:40.735Z,0.00
2018-02-16T05:00:40.817Z,0.00
2018-02-16T05:01:41.215Z,0.00
2018-02-16T05:02:40.858Z,0.00
2018-02-16T05:03:40.910Z,0.00
2018-02-16T05:04:40.963Z,0.00
2018-02-16T05:05:41.016Z,0.00
2018-02-16T05:06:41.070Z,0.00
2018-02-16T05:07:41.122Z,0.00
2018-02-16T05:08:41.173Z,0.00
2018-02-16T05:09:41.227Z,0.00
2018-02-16T05:10:42.480Z,0.00
2018-02-16T05:11:41.334Z,0.00
2018-02-16T05:12:41.391Z,0.00
2018-02-16T05:13:41.438Z,0.00
2018-02-16T05:14:41.491Z,0.00
2018-02-16T05:15:41.543Z,0.00
2018-02-16T05:16:41.596Z,0.00
2018-02-16T05:17:41.649Z,0.00
2018-02-16T05:18:41.701Z,0.00
2018-02-16T05:19:41.755Z,0.00
2018-02-16T05:20:41.806Z,0.00
2018-02-16T05:21:41.860Z,0.00
2018-02-16T05:22:41.913Z,0.00
2018-02-16T05:23:41.964Z,0.00
2018-02-16T05:24:42.017Z,0.00
2018-02-16T05:25:42.068Z,0.00
2018-02-16T05:26:42.122Z,0.00
2018-02-16T05:27:42.175Z,0.00
2018-02-16T05:28:42.227Z,0.00
2018-02-16T05:29:42.430Z,0.00
2018-02-16T05:30:42.334Z,0.00
2018-02-16T05:31:42.386Z,0.00
2018-02-16T05:32:42.439Z,0.00
2018-02-16T05:33:42.492Z,0.00
2018-02-16T05:34:42.544Z,0.00
2018-02-16T05:35:42.596Z,0.00
2018-02-16T05:36:42.651Z,0.00
2018-02-16T05:37:42.700Z,0.00
2018-02-16T05:38:42.752Z,0.00
2018-02-16T05:39:43.041Z,0.00
2018-02-16T05:40:42.857Z,0.00
2018-02-16T05:41:42.910Z,0.00
2018-02-16T05:42:42.964Z,0.00
2018-02-16T05:43:43.017Z,0.00
2018-02-16T05:44:43.067Z,0.00
2018-02-16T05:45:43.122Z,0.00
2018-02-16T05:46:43.173Z,0.00
2018-02-16T05:47:43.227Z,0.00
2018-02-16T05:48:43.279Z,0.00
2018-02-16T05:49:43.331Z,0.00
2018-02-16T05:50:43.384Z,0.00
2018-02-16T05:51:43.436Z,0.00
2018-02-16T05:52:43.489Z,0.00
2018-02-16T05:53:43.542Z,0.00
2018-02-16T05:54:43.596Z,4.00
2018-02-16T05:55:43.646Z,4.00
2018-02-16T05:56:43.703Z,4.00
2018-02-16T05:57:43.751Z,8.00
2018-02-16T05:58:43.804Z,8.00
2018-02-16T05:59:43.858Z,8.00
2018-02-16T06:00:43.910Z,8.00
2018-02-16T06:01:43.963Z,8.00
2018-02-16T06:02:44.016Z,8.00
2018-02-16T06:03:44.068Z,8.00
2018-02-16T06:04:44.154Z,8.00
2018-02-16T06:05:44.173Z,8.00
2018-02-16T06:06:44.226Z,8.00
2018-02-16T06:07:44.283Z,8.00
2018-02-16T06:08:44.581Z,8.00
2018-02-16T06:09:44.383Z,8.00
2018-02-16T06:10:44.436Z,8.00
2018-02-16T06:11:44.489Z,8.00
2018-02-16T06:12:44.540Z,12.00
2018-02-16T06:13:44.591Z,8.00
2018-02-16T06:14:44.651Z,12.00
2018-02-16T06:15:44.699Z,12.00
2018-02-16T06:16:44.751Z,12.00
2018-02-16T06:17:44.804Z,16.00
2018-02-16T06:18:44.857Z,16.00
2018-02-16T06:19:44.910Z,16.00
2018-02-16T06:20:44.996Z,20.00
2018-02-16T06:21:45.017Z,24.00
2018-02-16T06:22:45.067Z,28.00
2018-02-16T06:23:45.121Z,32.00
2018-02-16T06:24:45.173Z,36.00
2018-02-16T06:25:45.257Z,40.00
2018-02-16T06:26:45.277Z,48.00
2018-02-16T06:27:45.331Z,56.00
2018-02-16T06:28:45.382Z,60.00
2018-02-16T06:29:45.435Z,72.00
2018-02-16T06:30:45.487Z,80.00
2018-02-16T06:31:45.540Z,92.00
2018-02-16T06:32:45.592Z,108.00
2018-02-16T06:33:45.650Z,116.00
2018-02-16T06:34:45.697Z,136.00
2018-02-16T06:35:45.751Z,148.00
2018-02-16T06:36:45.801Z,168.00
2018-02-16T06:37:45.888Z,184.00
2018-02-16T06:38:45.907Z,208.00
2018-02-16T06:39:46.334Z,232.00
2018-02-16T06:40:46.011Z,252.00
2018-02-16T06:41:46.064Z,276.00
2018-02-16T06:42:46.117Z,304.00
2018-02-16T06:43:46.172Z,332.00
2018-02-16T06:44:46.222Z,360.00
2018-02-16T06:45:46.274Z,392.00
2018-02-16T06:46:46.327Z,420.00
2018-02-16T06:47:46.383Z,452.00
2018-02-16T06:48:46.431Z,484.00
2018-02-16T06:49:46.484Z,516.00
2018-02-16T06:50:46.538Z,548.00
2018-02-16T06:51:46.590Z,584.00
2018-02-16T06:52:46.642Z,624.00
2018-02-16T06:53:46.695Z,656.00
2018-02-16T06:54:47.393Z,688.00
2018-02-16T06:55:46.801Z,724.00
2018-02-16T06:56:46.852Z,760.00
2018-02-16T06:57:46.905Z,796.00
2018-02-16T06:58:46.957Z,832.00
2018-02-16T06:59:47.010Z,868.00
2018-02-16T07:00:47.071Z,908.00
2018-02-16T07:01:47.115Z,944.00
2018-02-16T07:02:47.168Z,984.00
2018-02-16T07:03:47.220Z,1020.00
2018-02-16T07:04:47.279Z,1056.00
2018-02-16T07:05:47.332Z,1092.00
2018-02-16T07:06:47.760Z,1132.00
2018-02-16T07:07:47.430Z,1176.00
2018-02-16T07:08:47.481Z,1220.00
2018-02-16T07:09:47.573Z,1264.00
2018-02-16T07:10:48.063Z,1292.00
2018-02-16T07:11:47.640Z,1348.00
2018-02-16T07:12:47.691Z,1388.00
2018-02-16T07:13:47.743Z,1416.00
2018-02-16T07:14:47.797Z,1476.00
2018-02-16T07:15:47.849Z,1532.00
2018-02-16T07:16:47.902Z,1552.00
2018-02-16T07:17:47.953Z,1544.00
2018-02-16T07:18:48.008Z,1572.00
2018-02-16T07:19:48.060Z,1616.00
2018-02-16T07:20:48.113Z,1628.00
2018-02-16T07:21:48.164Z,1664.00
2018-02-16T07:22:48.218Z,1708.00
2018-02-16T07:23:49.062Z,1740.00
2018-02-16T07:24:48.322Z,1776.00
2018-02-16T07:25:48.375Z,1804.00
2018-02-16T07:26:48.428Z,1820.00
2018-02-16T07:27:48.480Z,1852.00
2018-02-16T07:28:48.533Z,1896.00
2018-02-16T07:29:48.789Z,1940.00
2018-02-16T07:30:48.638Z,1972.00
2018-02-16T07:31:48.692Z,2012.00
2018-02-16T07:32:49.273Z,2068.00
2018-02-16T07:33:48.796Z,2076.00
2018-02-16T07:34:49.432Z,2120.00
2018-02-16T07:35:49.154Z,2216.00
2018-02-16T07:36:48.956Z,2256.00
2018-02-16T07:37:49.009Z,2284.00
2018-02-16T07:38:49.062Z,2340.00
2018-02-16T07:39:49.115Z,2372.00
2018-02-16T07:40:49.166Z,2408.00
2018-02-16T07:41:49.223Z,2352.00
2018-02-16T07:42:49.273Z,2344.00
2018-02-16T07:43:49.326Z,2360.00
2018-02-16T07:44:49.380Z,2360.00
2018-02-16T07:45:49.431Z,2368.00
2018-02-16T07:46:49.490Z,2400.00
2018-02-16T07:47:49.538Z,2416.00
2018-02-16T07:48:49.595Z,2428.00
2018-02-16T07:49:51.066Z,2500.00
2018-02-16T07:50:49.697Z,2568.00
2018-02-16T07:51:49.750Z,2600.00
2018-02-16T07:52:49.802Z,2628.00
2018-02-16T07:53:49.856Z,2604.00
2018-02-16T07:54:49.914Z,2672.00
2018-02-16T07:55:50.445Z,2732.00
2018-02-16T07:56:50.686Z,2792.00
2018-02-16T07:57:50.791Z,2904.00
2018-02-16T07:58:50.830Z,2920.00
2018-02-16T07:59:50.857Z,2932.00
2018-02-16T08:00:50.237Z,2924.00
2018-02-16T08:01:50.875Z,2956.00
2018-02-16T08:02:50.333Z,2972.00
2018-02-16T08:03:50.388Z,3164.00
2018-02-16T08:04:50.441Z,3192.00
2018-02-16T08:05:50.492Z,3132.00
2018-02-16T08:06:50.547Z,3216.00
2018-02-16T08:07:50.599Z,3396.00
2018-02-16T08:08:50.652Z,3456.00
2018-02-16T08:09:50.720Z,3444.00
2018-02-16T08:10:50.759Z,3572.00
2018-02-16T08:11:50.813Z,3756.00
2018-02-16T08:12:50.871Z,3740.00
2018-02-16T08:13:50.919Z,3616.00
2018-02-16T08:14:50.973Z,3604.00
2018-02-16T08:15:51.400Z,3740.00
2018-02-16T08:16:51.079Z,3716.00
2018-02-16T08:17:51.132Z,3680.00
2018-02-16T08:18:51.185Z,3676.00
2018-02-16T08:19:51.240Z,3668.00
2018-02-16T08:20:51.297Z,3760.00
2018-02-16T08:21:51.348Z,3928.00
2018-02-16T08:22:51.401Z,4200.00
2018-02-16T08:23:51.456Z,4436.00
2018-02-16T08:24:51.507Z,4588.00
2018-02-16T08:25:51.561Z,4716.00
2018-02-16T08:26:51.621Z,5080.00
2018-02-16T08:27:51.671Z,4868.00
2018-02-16T08:28:51.722Z,4772.00
2018-02-16T08:29:51.776Z,4908.00
2018-02-16T08:30:51.829Z,5092.00
2018-02-16T08:31:51.883Z,5360.00
2018-02-16T08:32:51.939Z,5056.00
2018-02-16T08:33:51.992Z,4908.00
2018-02-16T08:34:52.048Z,5112.00
2018-02-16T08:35:52.102Z,5100.00
2018-02-16T08:36:52.154Z,4936.00
2018-02-16T08:37:52.208Z,4904.00
2018-02-16T08:38:52.260Z,4896.00
2018-02-16T08:39:52.466Z,5124.00
2018-02-16T08:40:52.368Z,4664.00
2018-02-16T08:41:52.422Z,4324.00
2018-02-16T08:42:52.477Z,4100.00
2018-02-16T08:43:52.532Z,4008.00
2018-02-16T08:44:52.584Z,4312.00
2018-02-16T08:45:52.641Z,4488.00
2018-02-16T08:46:52.692Z,5248.00
2018-02-16T08:47:52.748Z,5716.00
2018-02-16T08:48:52.800Z,5988.00
2018-02-16T08:49:52.855Z,5916.00
2018-02-16T08:50:52.908Z,5924.00
2018-02-16T08:51:53.163Z,5712.00
2018-02-16T08:52:53.306Z,5544.00
2018-02-16T08:53:53.072Z,5380.00
2018-02-16T08:54:53.124Z,5384.00
2018-02-16T08:55:53.180Z,5436.00
2018-02-16T08:56:53.233Z,5620.00
2018-02-16T08:57:53.287Z,5700.00
2018-02-16T08:58:53.341Z,5512.00
2018-02-16T08:59:53.397Z,5536.00
2018-02-16T09:00:53.457Z,5648.00
2018-02-16T09:01:53.504Z,5888.00
2018-02-16T09:02:53.712Z,5964.00
2018-02-16T09:03:53.614Z,5604.00
2018-02-16T09:04:53.667Z,5156.00
2018-02-16T09:05:53.723Z,5060.00
2018-02-16T09:06:53.777Z,5112.00
2018-02-16T09:07:53.831Z,5256.00
2018-02-16T09:08:53.884Z,5520.00
2018-02-16T09:09:53.976Z,5656.00
2018-02-16T09:10:53.996Z,5180.00
2018-02-16T09:11:54.061Z,4964.00
2018-02-16T09:12:54.102Z,4896.00
2018-02-16T09:13:54.241Z,4848.00
2018-02-16T09:14:54.212Z,5112.00
2018-02-16T09:15:54.266Z,5396.00
2018-02-16T09:16:54.321Z,5460.00
2018-02-16T09:17:54.376Z,5488.00
2018-02-16T09:18:54.433Z,5748.00
2018-02-16T09:19:54.485Z,5952.00
2018-02-16T09:20:54.540Z,6108.00
2018-02-16T09:21:54.593Z,5996.00
2018-02-16T09:22:54.649Z,5800.00
2018-02-16T09:23:54.704Z,5624.00
2018-02-16T09:24:54.758Z,5588.00
2018-02-16T09:25:54.813Z,5804.00
2018-02-16T09:26:54.867Z,6156.00
2018-02-16T09:27:54.942Z,6048.00
2018-02-16T09:28:54.978Z,6236.00
2018-02-16T09:29:55.034Z,6024.00
2018-02-16T09:30:55.089Z,5880.00
2018-02-16T09:31:55.297Z,5812.00
2018-02-16T09:32:55.198Z,5712.00
2018-02-16T09:33:55.252Z,6156.00
2018-02-16T09:34:55.311Z,6312.00
2018-02-16T09:35:55.371Z,6552.00
2018-02-16T09:36:55.421Z,6844.00
2018-02-16T09:37:55.474Z,8232.00
2018-02-16T09:38:55.961Z,9544.00
2018-02-16T09:39:55.587Z,9096.00
2018-02-16T09:40:55.660Z,8816.00
2018-02-16T09:41:55.696Z,8864.00
2018-02-16T09:42:55.752Z,9184.00
2018-02-16T09:43:55.807Z,8764.00
2018-02-16T09:44:55.862Z,8228.00
2018-02-16T09:45:55.920Z,7844.00
2018-02-16T09:46:55.976Z,7808.00
2018-02-16T09:47:56.032Z,8140.00
2018-02-16T09:48:56.086Z,9576.00
2018-02-16T09:49:56.148Z,11032.00
2018-02-16T09:50:56.198Z,11112.00
2018-02-16T09:51:56.258Z,10320.00
2018-02-16T09:52:56.311Z,10192.00
2018-02-16T09:53:56.367Z,10364.00
2018-02-16T09:54:56.424Z,10024.00
2018-02-16T09:55:57.238Z,10072.00
2018-02-16T09:56:56.537Z,11216.00
2018-02-16T09:57:56.594Z,10868.00
2018-02-16T09:58:56.967Z,10496.00
2018-02-16T09:59:56.907Z,11768.00
2018-02-16T10:00:56.807Z,11832.00
2018-02-16T10:01:56.819Z,11704.00
2018-02-16T10:02:56.877Z,12068.00
2018-02-16T10:03:56.935Z,12228.00
2018-02-16T10:04:56.989Z,12736.00
2018-02-16T10:05:57.049Z,12216.00
2018-02-16T10:06:57.104Z,12704.00
2018-02-16T10:07:57.161Z,12980.00
2018-02-16T10:08:57.218Z,13200.00
2018-02-16T10:09:57.275Z,12440.00
2018-02-16T10:10:57.334Z,11740.00
2018-02-16T10:11:57.394Z,12576.00
2018-02-16T10:12:57.448Z,11388.00
2018-02-16T10:13:57.504Z,10992.00
2018-02-16T10:14:57.577Z,10956.00
2018-02-16T10:15:57.682Z,11012.00
2018-02-16T10:16:57.674Z,10408.00
2018-02-16T10:17:57.736Z,10220.00
2018-02-16T10:18:57.791Z,10564.00
2018-02-16T10:19:57.849Z,9544.00
2018-02-16T10:20:57.906Z,8972.00
2018-02-16T10:21:57.974Z,7784.00
2018-02-16T10:22:58.021Z,8084.00
2018-02-16T10:23:58.328Z,9096.00
2018-02-16T10:24:58.135Z,9928.00
2018-02-16T10:25:58.192Z,9936.00
2018-02-16T10:26:58.251Z,9088.00
2018-02-16T10:27:58.309Z,8520.00
2018-02-16T10:28:58.367Z,8448.00
2018-02-16T10:29:58.423Z,8868.00
2018-02-16T10:30:58.481Z,8124.00
2018-02-16T10:31:58.554Z,7828.00
2018-02-16T10:32:58.636Z,8136.00
2018-02-16T10:33:58.651Z,8900.00
2018-02-16T10:34:58.710Z,8544.00
2018-02-16T10:35:58.769Z,8568.00
2018-02-16T10:36:58.824Z,8052.00
2018-02-16T10:37:58.882Z,8192.00
2018-02-16T10:38:58.941Z,8060.00
2018-02-16T10:39:58.997Z,6936.00
2018-02-16T10:40:59.831Z,6632.00
2018-02-16T10:41:59.141Z,6532.00
2018-02-16T10:42:59.170Z,6356.00
2018-02-16T10:43:59.229Z,6240.00
2018-02-16T10:44:59.285Z,6300.00
2018-02-16T10:45:59.342Z,6400.00
2018-02-16T10:46:59.552Z,6836.00
2018-02-16T10:47:59.460Z,7188.00
2018-02-16T10:48:59.515Z,7620.00
2018-02-16T10:49:59.918Z,7572.00
2018-02-16T10:50:59.676Z,7336.00
2018-02-16T10:51:59.690Z,7192.00
2018-02-16T10:52:59.776Z,7016.00
2018-02-16T10:53:59.802Z,7096.00
2018-02-16T10:54:59.871Z,7192.00
2018-02-16T10:55:59.919Z,7368.00
2018-02-16T10:56:59.974Z,7272.00
2018-02-16T10:58:00.033Z,7304.00
2018-02-16T10:59:00.091Z,7684.00
2018-02-16T11:00:00.152Z,8912.00
2018-02-16T11:01:00.205Z,9780.00
2018-02-16T11:02:00.266Z,9484.00
2018-02-16T11:03:00.327Z,9796.00
2018-02-16T11:04:00.377Z,10448.00
2018-02-16T11:05:00.435Z,11312.00
2018-02-16T11:06:00.491Z,12284.00
2018-02-16T11:07:00.551Z,14304.00
2018-02-16T11:08:01.013Z,14680.00
2018-02-16T11:09:00.665Z,15020.00
2018-02-16T11:10:00.723Z,15996.00
2018-02-16T11:11:00.781Z,16728.00
2018-02-16T11:12:00.838Z,17420.00
2018-02-16T11:13:00.896Z,17220.00
2018-02-16T11:14:00.955Z,15972.00
2018-02-16T11:15:01.013Z,15528.00
2018-02-16T11:16:01.070Z,14064.00
2018-02-16T11:17:01.128Z,13748.00
2018-02-16T11:18:01.186Z,14636.00
2018-02-16T11:19:01.246Z,16660.00
2018-02-16T11:20:01.306Z,18240.00
2018-02-16T11:21:01.363Z,18336.00
2018-02-16T11:22:01.421Z,18112.00
2018-02-16T11:23:01.483Z,15652.00
2018-02-16T11:24:01.540Z,15060.00
2018-02-16T11:25:01.598Z,14640.00
2018-02-16T11:26:01.657Z,13272.00
2018-02-16T11:27:01.714Z,11688.00
2018-02-16T11:28:01.774Z,11444.00
2018-02-16T11:29:01.834Z,11036.00
2018-02-16T11:30:02.277Z,11132.00
2018-02-16T11:31:01.954Z,12816.00
2018-02-16T11:32:02.012Z,12984.00
2018-02-16T11:33:02.069Z,13964.00
2018-02-16T11:34:02.128Z,13772.00
2018-02-16T11:35:02.187Z,14296.00
2018-02-16T11:36:02.246Z,17824.00
2018-02-16T11:37:02.306Z,23008.00
2018-02-16T11:38:02.366Z,26176.00
2018-02-16T11:39:02.425Z,24864.00
2018-02-16T11:40:02.484Z,21888.00
2018-02-16T11:41:02.853Z,19072.00
2018-02-16T11:42:02.604Z,19712.00
2018-02-16T11:43:02.664Z,20736.00
2018-02-16T11:44:02.723Z,23808.00
2018-02-16T11:45:02.784Z,22048.00
2018-02-16T11:46:02.843Z,21856.00
2018-02-16T11:47:02.905Z,20416.00
2018-02-16T11:48:02.967Z,9764.00
2018-02-16T11:49:03.026Z,8136.00
2018-02-16T11:50:03.089Z,9568.00
2018-02-16T11:51:03.149Z,9356.00
2018-02-16T11:52:03.211Z,12852.00
2018-02-16T11:53:03.281Z,14004.00
2018-02-16T11:54:03.333Z,8736.00
2018-02-16T11:55:03.393Z,7828.00
2018-02-16T11:56:03.454Z,9980.00
2018-02-16T11:57:03.826Z,9432.00
2018-02-16T11:58:03.594Z,17664.00
2018-02-16T11:59:03.636Z,18400.00
2018-02-16T12:00:03.704Z,17376.00
2018-02-16T12:01:03.759Z,11348.00
2018-02-16T12:02:03.824Z,8252.00
2018-02-16T12:03:03.877Z,17952.00
2018-02-16T12:04:03.938Z,18624.00
2018-02-16T12:05:03.999Z,16416.00
2018-02-16T12:06:04.060Z,14812.00
2018-02-16T12:07:04.119Z,8452.00
2018-02-16T12:08:04.180Z,18496.00
2018-02-16T12:09:04.262Z,21248.00
2018-02-16T12:10:04.303Z,22144.00
2018-02-16T12:11:04.361Z,23584.00
2018-02-16T12:12:04.421Z,25280.00
2018-02-16T12:13:04.485Z,28032.00
2018-02-16T12:14:04.547Z,24736.00
2018-02-16T12:15:04.604Z,31840.00
2018-02-16T12:16:04.664Z,14456.00
2018-02-16T12:17:04.726Z,10900.00
2018-02-16T12:18:04.786Z,12164.00
2018-02-16T12:19:04.849Z,8788.00
2018-02-16T12:20:04.909Z,9288.00
2018-02-16T12:21:04.970Z,10352.00
2018-02-16T12:22:05.031Z,34112.00
2018-02-16T12:23:05.869Z,34848.00
2018-02-16T12:24:05.858Z,31616.00
2018-02-16T12:25:05.788Z,31360.00
2018-02-16T12:26:05.862Z,29696.00
2018-02-16T12:27:05.336Z,11140.00
2018-02-16T12:28:05.397Z,10932.00
2018-02-16T12:29:05.707Z,16480.00
2018-02-16T12:30:05.519Z,33184.00
2018-02-16T12:31:05.580Z,33248.00
2018-02-16T12:32:05.640Z,32800.00
2018-02-16T12:33:05.701Z,18176.00
2018-02-16T12:34:05.762Z,33216.00
2018-02-16T12:35:05.825Z,20544.00
2018-02-16T12:36:05.884Z,33600.00
2018-02-16T12:37:05.946Z,35040.00
2018-02-16T12:38:06.007Z,39520.00
2018-02-16T12:39:06.068Z,32896.00